createdAt,value
2018-03-14T00:00:00.694Z,6.47
2018-03-14T00:02:27.381Z,6.42
2018-03-14T00:04:54.094Z,6.47
2018-03-14T00:07:20.836Z,6.43
2018-03-14T00:09:47.526Z,6.40
2018-03-14T00:12:14.223Z,6.33
2018-03-14T00:14:40.982Z,6.43
2018-03-14T00:17:07.700Z,6.39
2018-03-14T00:19:34.401Z,6.38
2018-03-14T00:22:01.123Z,6.33
2018-03-14T00:24:27.828Z,6.32
2018-03-14T00:26:54.538Z,6.29
2018-03-14T00:29:22.003Z,6.29
2018-03-14T00:31:49.473Z,6.28
2018-03-14T00:34:16.942Z,6.21
2018-03-14T00:36:43.659Z,6.19
2018-03-14T00:39:11.166Z,6.16
2018-03-14T00:41:37.874Z,6.18
2018-03-14T00:44:05.348Z,6.18
2018-03-14T00:46:32.050Z,6.10
2018-03-14T00:48:58.764Z,6.08
2018-03-14T00:51:25.471Z,6.10
2018-03-14T00:53:52.902Z,6.07
2018-03-14T00:56:19.628Z,6.08
2018-03-14T00:58:47.096Z,6.13
2018-03-14T01:01:13.812Z,6.09
2018-03-14T01:03:40.541Z,6.11
2018-03-14T01:06:07.291Z,6.05
2018-03-14T01:08:34.009Z,6.01
2018-03-14T01:11:01.489Z,6.05
2018-03-14T01:13:28.195Z,6.08
2018-03-14T01:15:54.902Z,6.09
2018-03-14T01:18:21.622Z,6.02
2018-03-14T01:20:48.355Z,6.03
2018-03-14T01:23:15.061Z,5.94
2018-03-14T01:25:41.792Z,5.87
2018-03-14T01:28:08.589Z,5.91
2018-03-14T01:30:35.320Z,5.88
2018-03-14T01:33:02.795Z,5.83
2018-03-14T01:35:29.524Z,5.74
2018-03-14T01:37:56.986Z,5.67
2018-03-14T01:40:24.494Z,5.82
2018-03-14T01:42:51.239Z,5.83
2018-03-14T01:45:17.958Z,5.83
2018-03-14T01:47:44.685Z,5.82
2018-03-14T01:50:12.244Z,5.75
2018-03-14T01:52:39.710Z,5.65
2018-03-14T01:55:06.418Z,5.63
2018-03-14T01:57:33.156Z,5.68
2018-03-14T01:59:59.858Z,5.71
2018-03-14T02:02:26.543Z,5.69
2018-03-14T02:04:53.263Z,5.65
2018-03-14T02:07:19.999Z,5.71
2018-03-14T02:09:46.711Z,5.63
2018-03-14T02:12:14.167Z,5.59
2018-03-14T02:14:41.631Z,5.58
2018-03-14T02:17:09.081Z,5.57
2018-03-14T02:19:35.792Z,5.53
2018-03-14T02:22:02.546Z,5.50
2018-03-14T02:24:29.277Z,5.46
2018-03-14T02:26:56.752Z,5.39
2018-03-14T02:29:23.529Z,5.40
2018-03-14T02:31:51.017Z,5.36
2018-03-14T02:34:17.743Z,5.36
2018-03-14T02:37:03.931Z,5.25
2018-03-14T02:39:30.681Z,5.17
2018-03-14T02:41:58.129Z,5.05
2018-03-14T02:44:24.822Z,5.06
2018-03-14T02:46:51.563Z,5.03
2018-03-14T02:49:18.244Z,5.03
2018-03-14T02:51:44.936Z,4.99
2018-03-14T02:54:12.387Z,5.02
2018-03-14T02:56:39.810Z,4.89
2018-03-14T02:59:06.532Z,4.87
2018-03-14T03:01:33.250Z,4.82
2018-03-14T03:04:00.678Z,4.88
2018-03-14T03:06:27.374Z,4.76
2018-03-14T03:08:54.070Z,4.71
2018-03-14T03:11:20.757Z,4.91
2018-03-14T03:13:47.454Z,5.02
2018-03-14T03:16:14.157Z,4.97
2018-03-14T03:18:40.835Z,4.91
2018-03-14T03:21:07.560Z,4.95
2018-03-14T03:23:34.287Z,5.03
2018-03-14T03:26:00.978Z,5.03
2018-03-14T03:28:27.639Z,5.08
2018-03-14T03:30:55.072Z,5.12
2018-03-14T03:33:21.754Z,5.14
2018-03-14T03:35:48.451Z,5.14
2018-03-14T03:38:15.178Z,5.06
2018-03-14T03:40:41.913Z,5.01
2018-03-14T03:43:08.624Z,4.95
2018-03-14T03:45:35.311Z,4.91
2018-03-14T03:48:01.996Z,4.79
2018-03-14T03:50:29.487Z,4.71
2018-03-14T03:52:56.198Z,4.64
2018-03-14T03:55:23.649Z,4.60
2018-03-14T03:57:50.374Z,4.57
2018-03-14T04:00:17.095Z,4.55
2018-03-14T04:02:43.762Z,4.51
2018-03-14T04:05:10.454Z,4.49
2018-03-14T04:07:37.159Z,4.44
2018-03-14T04:10:03.911Z,4.42
2018-03-14T04:12:30.628Z,4.35
2018-03-14T04:14:57.303Z,4.39
2018-03-14T04:17:24.784Z,4.40
2018-03-14T04:19:52.203Z,4.37
2018-03-14T04:22:18.936Z,4.43
2018-03-14T04:24:45.623Z,4.42
2018-03-14T04:27:13.063Z,4.45
2018-03-14T04:29:39.767Z,4.37
2018-03-14T04:32:06.450Z,4.37
2018-03-14T04:34:33.128Z,4.34
2018-03-14T04:36:59.862Z,4.31
2018-03-14T04:39:27.288Z,4.28
2018-03-14T04:41:54.009Z,4.28
2018-03-14T04:44:20.688Z,4.24
2018-03-14T04:46:47.351Z,4.27
2018-03-14T04:49:14.797Z,4.20
2018-03-14T04:51:41.473Z,4.30
2018-03-14T04:54:08.172Z,4.30
2018-03-14T04:56:34.901Z,4.24
2018-03-14T04:59:01.608Z,4.26
2018-03-14T05:01:28.295Z,4.32
2018-03-14T05:03:54.982Z,4.29
2018-03-14T05:06:21.688Z,4.28
2018-03-14T05:08:48.405Z,4.20
2018-03-14T05:11:15.077Z,4.20
2018-03-14T05:13:41.805Z,4.24
2018-03-14T05:16:08.561Z,4.21
2018-03-14T05:18:35.266Z,4.22
2018-03-14T05:21:01.959Z,4.22
2018-03-14T05:23:28.654Z,4.21
2018-03-14T05:25:55.407Z,4.18
2018-03-14T05:28:22.077Z,4.18
2018-03-14T05:30:48.802Z,4.16
2018-03-14T05:33:15.535Z,4.22
2018-03-14T05:35:42.209Z,4.24
2018-03-14T05:38:08.949Z,4.26
2018-03-14T05:40:35.681Z,4.32
2018-03-14T05:43:02.409Z,4.41
2018-03-14T05:45:29.118Z,4.50
2018-03-14T05:47:56.560Z,4.54
2018-03-14T05:50:24.006Z,4.68
2018-03-14T05:52:50.673Z,4.66
2018-03-14T05:55:18.102Z,4.58
2018-03-14T05:57:44.866Z,4.69
2018-03-14T06:00:11.615Z,4.93
2018-03-14T06:02:38.325Z,5.13
2018-03-14T06:05:05.033Z,4.95
2018-03-14T06:07:31.745Z,4.84
2018-03-14T06:09:59.218Z,4.76
2018-03-14T06:12:26.662Z,4.66
2018-03-14T06:14:53.352Z,4.86
2018-03-14T06:17:20.076Z,5.18
2018-03-14T06:19:46.771Z,5.82
2018-03-14T06:22:13.450Z,8.69
2018-03-14T06:24:40.942Z,14.87
2018-03-14T06:27:08.596Z,18.15
2018-03-14T06:29:36.007Z,15.53
2018-03-14T06:32:02.734Z,10.35
2018-03-14T06:34:29.462Z,10.73
2018-03-14T06:36:56.169Z,14.12
2018-03-14T06:39:23.653Z,10.21
2018-03-14T06:41:50.415Z,9.21
2018-03-14T06:44:17.167Z,9.84
2018-03-14T06:46:43.944Z,11.61
2018-03-14T06:49:10.627Z,11.16
2018-03-14T06:51:37.394Z,14.40
2018-03-14T06:54:04.103Z,16.71
2018-03-14T06:56:31.523Z,18.69
2018-03-14T07:12:30.482Z,21.28
2018-03-14T07:14:57.161Z,21.32
2018-03-14T07:17:24.684Z,21.18
2018-03-14T07:19:52.466Z,22.64
2018-03-14T07:22:19.214Z,23.01
2018-03-14T07:24:46.675Z,20.76
2018-03-14T07:27:14.124Z,19.14
2018-03-14T07:29:40.806Z,18.76
2018-03-14T07:32:07.490Z,20.22
2018-03-14T07:34:35.682Z,19.45
2018-03-14T07:37:02.382Z,22.84
2018-03-14T07:39:29.086Z,23.02
2018-03-14T07:41:56.536Z,23.49
2018-03-14T07:44:23.283Z,24.92
2018-03-14T07:46:50.021Z,25.95
2018-03-14T07:49:16.737Z,23.10
2018-03-14T07:51:44.188Z,24.99
2018-03-14T07:54:10.873Z,23.26
2018-03-14T07:56:37.587Z,20.82
2018-03-14T07:59:04.343Z,17.55
2018-03-14T08:01:31.776Z,17.27
2018-03-14T08:03:58.501Z,17.88
2018-03-14T08:06:25.218Z,16.56
2018-03-14T08:08:51.905Z,14.78
2018-03-14T08:11:18.602Z,15.07
2018-03-14T08:13:45.410Z,14.56
2018-03-14T08:16:12.095Z,15.93
2018-03-14T08:18:38.799Z,16.37
2018-03-14T08:21:06.260Z,17.54
2018-03-14T08:23:33.711Z,14.79
2018-03-14T08:26:07.398Z,14.90
2018-03-14T08:28:34.101Z,15.74
2018-03-14T08:31:00.896Z,15.57
2018-03-14T08:33:27.569Z,14.90
2018-03-14T08:35:55.009Z,13.93
2018-03-14T08:38:21.697Z,13.78
2018-03-14T08:40:48.426Z,14.25
2018-03-14T08:43:15.158Z,12.92
2018-03-14T08:45:42.579Z,13.91
2018-03-14T08:48:09.327Z,13.25
2018-03-14T08:50:36.027Z,12.91
2018-03-14T08:53:02.836Z,12.87
2018-03-14T08:55:29.546Z,12.89
2018-03-14T08:57:56.998Z,12.85
2018-03-14T09:00:23.703Z,12.53
2018-03-14T09:02:51.125Z,11.92
2018-03-14T09:05:18.552Z,12.46
2018-03-14T09:07:45.223Z,12.32
2018-03-14T09:10:11.895Z,12.75
2018-03-14T09:12:39.367Z,12.98
2018-03-14T09:15:06.910Z,12.59
2018-03-14T09:17:34.371Z,13.02
2018-03-14T09:20:01.078Z,13.03
2018-03-14T09:22:27.754Z,13.31
2018-03-14T09:24:54.511Z,12.61
2018-03-14T09:27:22.077Z,12.69
2018-03-14T09:29:49.530Z,13.17
2018-03-14T09:32:16.268Z,13.85
2018-03-14T09:34:42.998Z,14.46
2018-03-14T09:37:09.705Z,15.92
2018-03-14T09:39:36.468Z,15.15
2018-03-14T09:42:03.245Z,15.89
2018-03-14T09:44:29.985Z,17.56
2018-03-14T09:46:56.750Z,18.76
2018-03-14T09:49:24.185Z,18.77
2018-03-14T09:51:50.878Z,17.59
2018-03-14T09:54:17.576Z,17.02
2018-03-14T09:56:44.272Z,16.48
2018-03-14T09:59:10.994Z,15.50
2018-03-14T10:01:38.429Z,15.91
2018-03-14T10:04:05.147Z,16.44
2018-03-14T10:06:31.873Z,16.78
2018-03-14T10:08:58.563Z,17.19
2018-03-14T10:11:25.311Z,16.88
2018-03-14T10:13:52.021Z,16.37
2018-03-14T10:16:18.727Z,18.84
2018-03-14T10:18:46.195Z,21.16
2018-03-14T10:21:13.656Z,23.37
2018-03-14T10:23:40.335Z,29.13
2018-03-14T10:26:07.069Z,29.08
2018-03-14T10:28:33.824Z,26.64
2018-03-14T10:31:01.334Z,26.16
2018-03-14T10:33:28.845Z,27.32
2018-03-14T10:35:55.547Z,31.36
2018-03-14T10:38:23.028Z,22.58
2018-03-14T10:40:49.759Z,21.47
2018-03-14T10:43:16.491Z,20.72
2018-03-14T10:45:43.928Z,18.36
2018-03-14T10:48:10.625Z,18.31
2018-03-14T10:50:37.348Z,20.93
2018-03-14T10:53:04.067Z,23.50
2018-03-14T10:55:30.745Z,21.22
2018-03-14T10:57:57.456Z,19.78
2018-03-14T11:00:26.746Z,21.01
2018-03-14T11:02:59.600Z,19.29
2018-03-14T11:05:26.329Z,18.65
2018-03-14T11:07:53.184Z,19.94
2018-03-14T11:10:19.927Z,20.71
2018-03-14T11:12:46.622Z,20.30
2018-03-14T11:15:13.314Z,20.02
2018-03-14T11:17:40.002Z,19.86
2018-03-14T11:20:06.718Z,19.73
2018-03-14T11:22:33.418Z,19.32
2018-03-14T11:25:01.149Z,20.41
2018-03-14T11:27:27.847Z,19.97
2018-03-14T11:29:54.593Z,19.74
2018-03-14T11:32:21.303Z,21.55
2018-03-14T11:34:48.729Z,24.07
2018-03-14T11:37:15.419Z,25.71
2018-03-14T11:39:42.894Z,27.23
2018-03-14T11:42:09.596Z,29.98
2018-03-14T11:44:36.299Z,31.44
2018-03-14T11:47:03.074Z,26.00
2018-03-14T11:49:29.828Z,23.56
2018-03-14T11:51:56.543Z,23.81
2018-03-14T11:54:23.278Z,22.46
2018-03-14T11:56:49.975Z,20.77
2018-03-14T11:59:17.432Z,19.90
2018-03-14T12:01:44.920Z,20.38
2018-03-14T12:04:11.619Z,19.41
2018-03-14T12:06:38.309Z,19.10
2018-03-14T12:09:05.041Z,18.94
2018-03-14T12:11:31.742Z,18.49
2018-03-14T12:13:58.450Z,18.05
2018-03-14T12:16:25.170Z,18.26
2018-03-14T12:18:51.882Z,17.87
2018-03-14T12:21:18.657Z,17.88
2018-03-14T12:23:46.103Z,17.10
2018-03-14T12:26:13.612Z,16.98
2018-03-14T12:28:40.273Z,17.20
2018-03-14T12:31:06.959Z,17.59
2018-03-14T12:33:34.412Z,17.48
2018-03-14T12:36:01.844Z,17.86
2018-03-14T12:38:28.569Z,17.25
2018-03-14T12:40:55.310Z,17.09
2018-03-14T12:43:22.016Z,17.00
2018-03-14T12:45:49.512Z,16.58
2018-03-14T12:48:16.225Z,16.33
2018-03-14T12:50:43.725Z,16.18
2018-03-14T12:53:10.426Z,15.91
2018-03-14T12:55:37.887Z,15.74
2018-03-14T12:58:05.348Z,15.61
2018-03-14T13:00:32.031Z,15.56
2018-03-14T13:02:58.681Z,15.53
2018-03-14T13:05:25.413Z,15.47
2018-03-14T13:07:52.110Z,15.48
2018-03-14T13:10:19.531Z,15.30
2018-03-14T13:12:46.225Z,15.06
2018-03-14T13:15:13.650Z,15.17
2018-03-14T13:17:40.372Z,15.16
2018-03-14T13:20:07.085Z,15.23
2018-03-14T13:22:33.771Z,15.06
2018-03-14T13:25:00.442Z,14.80
2018-03-14T13:27:27.114Z,14.88
2018-03-14T13:29:53.818Z,14.98
2018-03-14T13:32:20.553Z,15.63
2018-03-14T13:34:47.220Z,15.85
2018-03-14T13:37:14.696Z,16.27
2018-03-14T13:39:42.133Z,16.31
2018-03-14T13:42:08.814Z,16.40
2018-03-14T13:44:35.492Z,16.12
2018-03-14T13:47:02.239Z,16.09
2018-03-14T13:49:28.936Z,15.96
2018-03-14T13:51:55.630Z,15.87
2018-03-14T13:54:22.357Z,15.71
2018-03-14T13:56:49.088Z,16.23
2018-03-14T13:59:15.778Z,16.88
2018-03-14T14:01:42.497Z,16.98
2018-03-14T14:04:09.190Z,17.30
2018-03-14T14:06:36.595Z,17.33
2018-03-14T14:09:03.480Z,17.51
2018-03-14T14:11:30.165Z,17.38
2018-03-14T14:13:56.824Z,16.85
2018-03-14T14:16:23.543Z,16.74
2018-03-14T14:18:50.232Z,16.29
2018-03-14T14:21:16.944Z,16.35
2018-03-14T14:23:43.630Z,16.05
2018-03-14T14:26:10.335Z,16.05
2018-03-14T14:28:37.130Z,16.03
2018-03-14T14:31:04.587Z,15.90
2018-03-14T14:33:32.011Z,16.01
2018-03-14T14:35:58.719Z,16.06
2018-03-14T14:38:25.423Z,16.17
2018-03-14T14:40:52.134Z,16.45
2018-03-14T14:43:18.816Z,16.26
2018-03-14T14:45:46.268Z,16.22
2018-03-14T14:48:13.003Z,16.07
2018-03-14T14:50:39.695Z,15.65
2018-03-14T14:53:06.413Z,15.53
2018-03-14T14:55:33.861Z,15.32
2018-03-14T14:58:00.589Z,14.96
2018-03-14T15:00:28.117Z,15.02
2018-03-14T15:02:54.812Z,14.99
2018-03-14T15:05:21.590Z,14.88
2018-03-14T15:07:49.035Z,14.72
2018-03-14T15:10:16.481Z,14.60
2018-03-14T15:12:43.168Z,14.38
2018-03-14T15:15:09.891Z,14.26
2018-03-14T15:17:37.325Z,14.31
2018-03-14T15:20:04.185Z,14.39
2018-03-14T15:22:31.639Z,14.33
2018-03-14T15:24:58.379Z,14.28
2018-03-14T15:27:25.129Z,14.13
2018-03-14T15:29:51.816Z,13.91
2018-03-14T15:32:18.565Z,13.84
2018-03-14T15:34:45.271Z,13.66
2018-03-14T15:37:12.060Z,13.55
2018-03-14T15:39:38.719Z,13.23
2018-03-14T15:42:05.507Z,13.12
2018-03-14T15:44:32.938Z,13.03
2018-03-14T15:46:59.691Z,13.12
2018-03-14T15:49:26.447Z,13.12
2018-03-14T15:51:53.129Z,13.11
2018-03-14T15:54:19.850Z,13.02
2018-03-14T15:56:47.323Z,13.02
2018-03-14T15:59:14.066Z,13.00
2018-03-14T16:01:40.775Z,12.90
2018-03-14T16:04:07.567Z,12.91
2018-03-14T16:06:34.301Z,12.89
2018-03-14T16:09:00.988Z,12.87
2018-03-14T16:11:27.718Z,12.88
2018-03-14T16:13:54.454Z,12.84
2018-03-14T16:16:21.184Z,12.76
2018-03-14T16:18:47.979Z,12.66
2018-03-14T16:21:14.711Z,12.73
2018-03-14T16:23:41.410Z,12.72
2018-03-14T16:26:08.158Z,12.69
2018-03-14T16:28:34.882Z,12.73
2018-03-14T16:31:02.355Z,12.63
2018-03-14T16:33:29.069Z,12.56
2018-03-14T16:35:55.746Z,12.50
2018-03-14T16:38:22.423Z,12.40
2018-03-14T16:40:49.143Z,12.28
2018-03-14T16:43:15.847Z,12.25
2018-03-14T16:45:42.560Z,12.20
2018-03-14T16:48:09.279Z,12.21
2018-03-14T16:50:36.018Z,12.15
2018-03-14T16:53:02.771Z,12.05
2018-03-14T16:55:29.474Z,12.02
2018-03-14T16:57:57.028Z,11.95
2018-03-14T17:00:23.757Z,11.93
2018-03-14T17:02:50.428Z,11.91
2018-03-14T17:05:17.909Z,11.87
2018-03-14T17:07:44.591Z,11.89
2018-03-14T17:10:11.322Z,11.80
2018-03-14T17:12:38.051Z,11.71
2018-03-14T17:15:04.883Z,11.60
2018-03-14T17:17:31.604Z,11.54
2018-03-14T17:19:59.023Z,11.48
2018-03-14T17:22:25.738Z,11.48
2018-03-14T17:24:52.443Z,11.48
2018-03-14T17:27:19.167Z,11.38
2018-03-14T17:29:45.904Z,11.39
2018-03-14T17:32:12.665Z,11.39
2018-03-14T17:34:39.343Z,11.33
2018-03-14T17:37:06.053Z,11.29
2018-03-14T17:39:32.790Z,11.29
2018-03-14T17:41:59.589Z,11.25
2018-03-14T17:44:26.296Z,11.31
2018-03-14T17:46:53.747Z,11.33
2018-03-14T17:49:20.517Z,11.33
2018-03-14T17:51:47.923Z,11.23
2018-03-14T17:54:14.667Z,11.21
2018-03-14T17:56:41.414Z,11.17
2018-03-14T17:59:08.115Z,11.17
2018-03-14T18:01:35.610Z,11.11
2018-03-14T18:04:02.316Z,10.92
2018-03-14T18:06:29.827Z,10.85
2018-03-14T18:08:56.531Z,10.82
2018-03-14T18:11:23.290Z,10.77
2018-03-14T18:13:50.039Z,10.73
2018-03-14T18:16:17.540Z,10.70
2018-03-14T18:18:44.273Z,10.63
2018-03-14T18:21:11.050Z,10.50
2018-03-14T18:23:38.494Z,10.48
2018-03-14T18:26:05.220Z,10.45
2018-03-14T18:28:32.019Z,10.46
2018-03-14T18:30:58.744Z,10.36
2018-03-14T18:33:26.203Z,10.33
2018-03-14T18:35:53.709Z,10.28
2018-03-14T18:38:20.410Z,10.25
2018-03-14T18:40:47.839Z,10.15
2018-03-14T18:43:14.572Z,10.13
2018-03-14T18:45:41.305Z,10.11
2018-03-14T18:48:08.017Z,10.02
2018-03-14T18:50:35.565Z,9.97
2018-03-14T18:53:03.012Z,9.90
2018-03-14T18:55:29.742Z,9.83
2018-03-14T18:57:56.507Z,9.75
2018-03-14T19:00:23.215Z,9.70
2018-03-14T19:02:49.936Z,9.66
2018-03-14T19:05:16.713Z,9.61
2018-03-14T19:07:43.427Z,9.58
2018-03-14T19:10:10.184Z,9.50
2018-03-14T19:12:36.902Z,9.37
2018-03-14T19:15:03.741Z,9.31
2018-03-14T19:17:31.373Z,9.29
2018-03-14T19:19:58.143Z,9.23
2018-03-14T19:22:25.574Z,9.21
2018-03-14T19:24:52.225Z,9.17
2018-03-14T19:27:18.928Z,9.12
2018-03-14T19:29:45.674Z,9.10
2018-03-14T19:32:12.417Z,9.11
2018-03-14T19:34:39.175Z,9.09
2018-03-14T19:37:05.896Z,9.01
2018-03-14T19:39:32.616Z,8.96
2018-03-14T19:42:00.123Z,8.91
2018-03-14T19:44:26.864Z,8.87
2018-03-14T19:46:53.584Z,8.82
2018-03-14T19:49:20.594Z,8.74
2018-03-14T19:51:47.333Z,8.67
2018-03-14T19:54:14.031Z,8.64
2018-03-14T19:56:40.828Z,8.56
2018-03-14T19:59:07.524Z,8.46
2018-03-14T20:01:34.215Z,8.38
2018-03-14T20:04:00.953Z,8.23
2018-03-14T20:06:27.664Z,8.18
2018-03-14T20:09:01.489Z,8.07
2018-03-14T20:11:28.206Z,8.03
2018-03-14T20:13:54.923Z,8.00
2018-03-14T20:16:21.683Z,7.94
2018-03-14T20:18:48.424Z,7.95
2018-03-14T20:21:15.120Z,7.91
2018-03-14T20:23:41.892Z,7.84
2018-03-14T20:26:08.599Z,7.84
2018-03-14T20:28:35.274Z,7.80
2018-03-14T20:31:02.820Z,7.71
2018-03-14T20:33:29.482Z,7.63
2018-03-14T20:35:56.965Z,7.57
2018-03-14T20:38:23.663Z,7.54
2018-03-14T20:40:51.141Z,7.55
2018-03-14T20:43:18.596Z,7.52
2018-03-14T20:45:46.110Z,7.50
2018-03-14T20:48:12.949Z,7.40
2018-03-14T20:50:40.390Z,7.38
2018-03-14T20:53:07.069Z,7.34
2018-03-14T20:55:33.786Z,7.34
2018-03-14T20:58:00.485Z,7.26
2018-03-14T21:00:27.200Z,7.16
2018-03-14T21:02:53.944Z,7.16
2018-03-14T21:05:20.661Z,7.08
2018-03-14T21:07:47.375Z,6.99
2018-03-14T21:10:14.815Z,6.96
2018-03-14T21:12:41.613Z,6.94
2018-03-14T21:15:08.349Z,7.00
2018-03-14T21:17:35.791Z,7.07
2018-03-14T21:20:03.512Z,7.10
2018-03-14T21:22:30.797Z,7.20
2018-03-14T21:24:57.542Z,7.19
2018-03-14T21:27:24.259Z,7.21
2018-03-14T21:29:51.033Z,7.25
2018-03-14T21:32:17.801Z,7.27
2018-03-14T21:34:45.277Z,7.35
2018-03-14T21:37:11.996Z,7.31
2018-03-14T21:39:38.739Z,7.38
2018-03-14T21:42:06.430Z,7.31
2018-03-14T21:44:33.085Z,7.40
2018-03-14T21:46:59.838Z,7.31
2018-03-14T21:49:26.570Z,7.38
2018-03-14T21:51:53.259Z,7.37
2018-03-14T21:54:19.979Z,7.50
2018-03-14T21:56:46.753Z,7.49
2018-03-14T21:59:13.427Z,7.39
2018-03-14T22:01:40.857Z,7.31
2018-03-14T22:04:07.612Z,7.36
2018-03-14T22:06:35.063Z,7.29
2018-03-14T22:09:01.796Z,7.38
2018-03-14T22:11:28.512Z,7.41
2018-03-14T22:13:55.277Z,7.38
2018-03-14T22:16:22.063Z,7.34
2018-03-14T22:18:48.891Z,7.23
2018-03-14T22:21:15.604Z,7.38
2018-03-14T22:23:42.273Z,7.36
2018-03-14T22:26:09.018Z,7.27
2018-03-14T22:28:36.483Z,7.27
2018-03-14T22:31:03.254Z,7.23
2018-03-14T22:33:30.034Z,7.29
2018-03-14T22:35:56.758Z,7.15
2018-03-14T22:38:23.484Z,7.14
2018-03-14T22:40:50.155Z,7.12
2018-03-14T22:43:16.870Z,7.10
2018-03-14T22:45:44.331Z,7.04
2018-03-14T22:48:11.781Z,7.07
2018-03-14T22:50:39.237Z,7.03
2018-03-14T22:53:05.952Z,7.03
2018-03-14T22:55:32.648Z,6.99
2018-03-14T22:57:59.311Z,6.87
2018-03-14T23:00:26.003Z,6.94
2018-03-14T23:02:52.731Z,6.93
2018-03-14T23:05:26.511Z,6.96
2018-03-14T23:07:53.230Z,6.94
2018-03-14T23:10:19.919Z,6.87
2018-03-14T23:12:46.674Z,6.92
2018-03-14T23:15:13.379Z,6.92
2018-03-14T23:17:40.061Z,6.95
2018-03-14T23:20:06.758Z,6.90
2018-03-14T23:22:33.434Z,7.00
2018-03-14T23:25:00.132Z,6.88
2018-03-14T23:27:27.563Z,6.96
2018-03-14T23:29:54.257Z,6.82
2018-03-14T23:32:20.956Z,6.80
2018-03-14T23:34:48.374Z,6.83
2018-03-14T23:37:15.087Z,6.85
2018-03-14T23:39:41.828Z,6.81
2018-03-14T23:42:08.517Z,6.80
2018-03-14T23:44:35.220Z,6.89
2018-03-14T23:47:02.004Z,6.93
2018-03-14T23:49:28.708Z,6.94
2018-03-14T23:51:55.398Z,7.00
2018-03-14T23:54:22.075Z,6.83
2018-03-14T23:56:49.538Z,6.81
2018-03-14T23:59:16.989Z,6.80
